Time;durP1;ratioP1;P1;durP2;ratioP2;P2;SDS_P1;SDS_P2;PMS_P1;PMS_P2;Temp;Humidity;BMP_temperature;BMP_pressure;BME280_temperature;BME280_humidity;BME280_pressure;Samples;Min_cycle;Max_cycle;Signal;HPM_P1;HPM_P2
2022/12/08 00:00:37;;;;;;;8.15;3.20;;;;;;;-6.21;67.27;100017.28;5007152;28;20042;-47
2022/12/08 00:03:03;;;;;;;4.38;2.40;;;;;;;-6.26;67.47;100017.13;4976230;28;20066;-49
2022/12/08 00:10:57;;;;;;;6.93;3.10;;;;;;;-6.49;67.97;100006.13;4981631;28;20034;-46
2022/12/08 00:13:23;;;;;;;5.45;2.65;;;;;;;-6.72;68.25;99958.03;4990453;28;20427;-45
2022/12/08 00:15:49;;;;;;;7.22;3.10;;;;;;;-6.44;67.93;99996.22;4974857;28;20073;-47
2022/12/08 00:18:15;;;;;;;6.88;3.45;;;;;;;-6.37;67.62;99997.28;4993204;28;20055;-47
2022/12/08 00:20:41;;;;;;;9.52;3.95;;;;;;;-6.53;67.69;99966.34;4988884;28;20045;-45
2022/12/08 00:23:07;;;;;;;8.27;3.55;;;;;;;-6.23;67.33;99996.16;4988653;28;20096;-46
2022/12/08 00:25:36;;;;;;;10.23;4.15;;;;;;;-6.17;67.09;99997.22;4988565;28;20038;-49
2022/12/08 00:28:02;;;;;;;10.13;4.20;;;;;;;-6.34;66.94;99939.22;4983169;28;20185;-49
2022/12/08 00:30:28;;;;;;;8.73;4.82;;;;;;;-6.22;66.67;99986.06;4991255;28;20132;-45
2022/12/08 00:32:54;;;;;;;13.65;4.22;;;;;;;-6.20;67.05;99983.59;4989357;28;20050;-47
2022/12/08 00:35:19;;;;;;;9.18;3.13;;;;;;;-6.18;66.47;99984.53;4981570;28;20035;-48
2022/12/08 00:37:46;;;;;;;7.43;2.80;;;;;;;-6.24;66.90;99982.63;4979688;28;20042;-45
2022/12/08 00:40:11;;;;;;;3.15;2.17;;;;;;;-6.39;66.84;99983.72;4980309;28;20038;-48
2022/12/08 00:42:38;;;;;;;11.40;3.53;;;;;;;-6.29;66.92;99983.25;4964999;28;20049;-45
2022/12/08 00:45:04;;;;;;;7.85;3.05;;;;;;;-6.19;66.39;99983.66;4979955;28;20047;-45
2022/12/08 00:47:30;;;;;;;8.18;3.10;;;;;;;-6.17;66.39;99971.91;4970876;28;20047;-46
2022/12/08 00:49:56;;;;;;;7.82;3.25;;;;;;;-6.17;66.35;99968.50;4974334;28;20043;-44
2022/12/08 00:52:22;;;;;;;7.15;2.80;;;;;;;-6.25;66.17;99929.44;4986909;28;20403;-48
2022/12/08 00:54:48;;;;;;;7.22;3.30;;;;;;;-6.05;66.04;99962.25;4974914;28;20057;-46
2022/12/08 00:57:14;;;;;;;7.82;3.85;;;;;;;-5.96;65.84;99960.84;4990246;28;20046;-46
2022/12/08 00:59:40;;;;;;;9.63;3.53;;;;;;;-5.99;65.80;99954.00;4989119;28;20053;-46
2022/12/08 01:02:06;;;;;;;6.70;3.45;;;;;;;-5.84;65.83;99951.13;4981913;28;20039;-46
2022/12/08 01:04:31;;;;;;;6.13;3.45;;;;;;;-5.92;65.24;99957.63;4971972;28;20466;-44
2022/12/08 01:06:57;;;;;;;12.38;3.42;;;;;;;-6.20;65.72;99923.75;4988033;28;20042;-48
2022/12/08 01:09:23;;;;;;;7.03;2.13;;;;;;;-6.39;65.69;99918.84;4982118;28;20499;-46
2022/12/08 01:11:49;;;;;;;8.27;3.15;;;;;;;-6.25;65.94;99970.78;4982222;28;20046;-46
2022/12/08 01:14:15;;;;;;;9.32;3.67;;;;;;;-6.41;66.23;99938.16;4991042;28;20042;-46
2022/12/08 01:16:41;;;;;;;4.72;2.47;;;;;;;-6.37;65.92;99922.25;4979559;28;20049;-47
2022/12/08 01:19:09;;;;;;;8.48;3.75;;;;;;;-6.07;65.59;99975.66;4980878;28;20043;-47
2022/12/08 01:21:35;;;;;;;10.05;4.05;;;;;;;-6.18;65.58;99970.22;4978706;28;20046;-46
2022/12/08 01:24:01;;;;;;;9.20;2.35;;;;;;;-6.25;65.54;99974.97;4987546;28;20030;-46
2022/12/08 01:26:27;;;;;;;8.57;4.03;;;;;;;-6.31;65.79;99969.69;4993280;28;20495;-46
2022/12/08 01:28:53;;;;;;;8.75;3.80;;;;;;;-6.23;66.17;99981.84;4984767;28;20066;-45
2022/12/08 01:31:20;;;;;;;7.65;3.50;;;;;;;-6.21;65.68;99972.63;4971064;28;20051;-48
2022/12/08 01:33:46;;;;;;;6.18;2.53;;;;;;;-6.22;65.97;99970.88;4970993;28;20157;-49
2022/12/08 01:36:29;;;;;;;9.35;3.88;;;;;;;-6.34;65.88;99969.59;4982574;28;20042;-45
2022/12/08 01:38:58;;;;;;;7.43;3.15;;;;;;;-6.36;65.83;99964.47;4972185;28;20523;-45
2022/12/08 01:41:29;;;;;;;6.40;3.37;;;;;;;-6.36;65.94;99974.56;4988237;28;20053;-45
2022/12/08 01:44:01;;;;;;;4.43;1.95;;;;;;;-6.44;66.22;99969.22;4982773;28;20101;-48
2022/12/08 01:46:29;;;;;;;7.07;2.67;;;;;;;-6.48;66.68;99964.84;4983980;28;20042;-49
2022/12/08 01:49:03;;;;;;;6.15;2.75;;;;;;;-6.69;66.58;99936.25;4989201;28;20082;-49
2022/12/08 01:51:32;;;;;;;3.70;2.10;;;;;;;-6.52;66.61;99968.09;4972586;28;20091;-47
2022/12/08 01:53:58;;;;;;;11.75;4.07;;;;;;;-6.50;66.46;99984.19;4986193;28;20145;-49
2022/12/08 01:56:55;;;;;;;6.97;3.65;;;;;;;-6.49;66.92;99975.78;4971930;28;20550;-50
2022/12/08 01:59:23;;;;;;;7.70;3.28;;;;;;;-6.58;66.37;99967.84;4947520;28;20061;-47
2022/12/08 02:01:50;;;;;;;6.95;3.17;;;;;;;-6.75;66.84;99925.88;4973009;28;20132;-46
2022/12/08 02:04:16;;;;;;;11.20;3.53;;;;;;;-6.79;66.63;99928.25;4970957;28;20045;-46
2022/12/08 02:06:43;;;;;;;7.25;3.58;;;;;;;-6.56;66.85;99963.72;4977572;28;20510;-45
2022/12/08 02:09:10;;;;;;;6.85;3.00;;;;;;;-6.53;66.75;99957.91;5001962;28;20879;-45
2022/12/08 02:11:36;;;;;;;11.18;3.83;;;;;;;-6.64;67.13;99964.22;4990240;28;20129;-47
2022/12/08 02:14:05;;;;;;;5.43;2.55;;;;;;;-6.65;67.17;99973.50;4988807;28;20053;-50
2022/12/08 02:16:42;;;;;;;5.22;2.55;;;;;;;-6.69;67.08;99948.88;4988727;28;20069;-47
2022/12/08 02:19:10;;;;;;;6.10;3.03;;;;;;;-6.63;66.98;99959.22;4990224;28;20115;-49
2022/12/08 02:21:51;;;;;;;9.98;3.88;;;;;;;-6.68;67.33;99957.31;4986786;28;20046;-48
2022/12/08 02:24:50;;;;;;;12.65;3.85;;;;;;;-6.66;67.43;99956.59;4989093;28;20046;-49
2022/12/08 02:27:38;;;;;;;6.90;3.08;;;;;;;-6.60;67.31;99945.84;4965459;28;20162;-46
2022/12/08 02:30:21;;;;;;;6.95;3.97;;;;;;;-6.59;67.29;99943.38;4980235;28;20042;-49
2022/12/08 02:33:20;;;;;;;7.57;4.05;;;;;;;-6.60;67.61;99951.78;4984526;28;20450;-48
2022/12/08 02:35:59;;;;;;;9.30;3.70;;;;;;;-6.68;67.36;99935.44;4943301;28;20049;-48
2022/12/08 02:38:37;;;;;;;8.35;3.05;;;;;;;-6.62;67.34;99934.81;4986278;28;20058;-46
2022/12/08 02:41:29;;;;;;;6.60;3.42;;;;;;;-6.59;67.31;99925.66;4987852;28;20085;-48
2022/12/08 02:44:09;;;;;;;11.13;4.50;;;;;;;-6.59;67.30;99934.91;4984848;28;20471;-46
2022/12/08 02:46:39;;;;;;;11.05;3.95;;;;;;;-6.77;67.49;99898.84;4986725;28;20088;-46
2022/12/08 02:49:06;;;;;;;5.82;2.70;;;;;;;-6.61;67.07;99916.31;4981437;28;20117;-45
2022/12/08 02:51:31;;;;;;;6.45;3.70;;;;;;;-6.63;67.37;99931.41;4974758;28;20473;-52
2022/12/08 02:53:58;;;;;;;7.10;3.53;;;;;;;-6.62;67.20;99929.75;4964910;28;20038;-46
2022/12/08 02:56:42;;;;;;;6.32;3.10;;;;;;;-6.66;67.19;99938.03;4974232;28;20053;-45
2022/12/08 02:59:46;;;;;;;6.13;3.30;;;;;;;-6.66;67.50;99925.41;4986778;28;20034;-47
2022/12/08 03:02:15;;;;;;;7.30;3.20;;;;;;;-6.71;67.30;99922.69;4986757;28;20034;-47
2022/12/08 03:04:48;;;;;;;7.03;3.40;;;;;;;-6.68;67.03;99939.63;4988366;28;20068;-45
2022/12/08 03:07:25;;;;;;;12.20;4.60;;;;;;;-6.74;67.47;99912.44;4973832;28;20054;-44
2022/12/08 03:09:54;;;;;;;17.38;5.05;;;;;;;-6.70;67.54;99921.03;5003035;28;21594;-45
2022/12/08 03:12:30;;;;;;;7.13;3.60;;;;;;;-6.72;67.66;99908.34;4984504;28;20053;-48
2022/12/08 03:14:59;;;;;;;11.00;4.40;;;;;;;-6.69;67.55;99897.44;4981045;28;20069;-47
2022/12/08 03:17:27;;;;;;;9.52;3.17;;;;;;;-6.66;67.40;99902.66;4975340;28;20042;-49
2022/12/08 03:19:54;;;;;;;8.95;2.83;;;;;;;-6.65;67.53;99897.66;4968185;28;20449;-45
2022/12/08 03:22:23;;;;;;;13.48;4.80;;;;;;;-6.62;67.52;99895.22;4977944;28;20129;-44
2022/12/08 03:24:49;;;;;;;6.03;3.58;;;;;;;-6.82;67.53;99848.13;4986438;28;20030;-50
2022/12/08 03:27:27;;;;;;;6.03;2.95;;;;;;;-6.61;67.10;99894.44;4985543;28;20049;-48
2022/12/08 03:29:55;;;;;;;10.90;4.80;;;;;;;-6.64;67.56;99895.97;4987987;28;20038;-48
2022/12/08 03:32:36;;;;;;;7.35;3.05;;;;;;;-6.67;67.46;99903.44;4987770;28;20143;-44
2022/12/08 03:35:07;;;;;;;9.52;3.95;;;;;;;-6.71;67.27;99902.47;4972944;28;20041;-49
2022/12/08 03:37:37;;;;;;;16.25;3.50;;;;;;;-6.70;67.41;99885.66;4985197;28;20049;-44
2022/12/08 03:40:06;;;;;;;7.38;3.75;;;;;;;-6.59;67.34;99902.91;4982029;28;20511;-49
2022/12/08 03:42:32;;;;;;;6.32;3.63;;;;;;;-6.61;67.51;99908.72;4960229;28;20511;-47
2022/12/08 03:44:58;;;;;;;12.55;4.85;;;;;;;-6.61;67.70;99885.97;4986471;28;20034;-47
2022/12/08 03:47:24;;;;;;;10.65;3.65;;;;;;;-6.52;67.54;99883.78;4974003;28;20050;-46
2022/12/08 03:49:49;;;;;;;4.60;2.90;;;;;;;-6.56;67.19;99902.19;4986149;28;20113;-47
2022/12/08 03:52:15;;;;;;;10.18;4.43;;;;;;;-6.64;67.34;99879.13;4979011;28;20042;-48
2022/12/08 03:54:41;;;;;;;8.93;3.95;;;;;;;-6.66;67.11;99863.06;4973844;28;20046;-48
2022/12/08 03:57:07;;;;;;;9.00;3.72;;;;;;;-6.68;67.99;99882.34;4992958;28;20045;-50
2022/12/08 03:59:33;;;;;;;7.45;3.97;;;;;;;-6.73;67.91;99871.22;4992552;28;20046;-47
2022/12/08 04:01:59;;;;;;;6.70;3.33;;;;;;;-6.73;68.07;99877.94;4992392;28;20522;-50
2022/12/08 04:04:25;;;;;;;6.03;2.97;;;;;;;-6.97;68.40;99843.38;4991529;28;20049;-46
2022/12/08 04:06:51;;;;;;;7.60;3.33;;;;;;;-6.78;68.33;99871.84;4989010;28;20133;-48
2022/12/08 04:09:17;;;;;;;5.93;2.90;;;;;;;-6.76;68.45;99867.72;4991756;28;20125;-45
2022/12/08 04:11:43;;;;;;;5.22;2.85;;;;;;;-6.66;68.70;99868.13;4991240;28;20049;-48
2022/12/08 04:14:09;;;;;;;7.03;2.70;;;;;;;-6.73;68.69;99856.03;4992306;28;20046;-46
2022/12/08 04:16:35;;;;;;;5.18;2.97;;;;;;;-6.75;69.47;99861.88;4988634;28;20042;-48
2022/12/08 04:19:01;;;;;;;3.78;2.63;;;;;;;-6.78;70.08;99852.50;4972767;28;20118;-46
2022/12/08 04:21:27;;;;;;;7.68;3.47;;;;;;;-6.79;70.11;99855.81;4989630;28;20512;-47
2022/12/08 04:23:53;;;;;;;6.82;2.80;;;;;;;-6.74;70.32;99856.84;4992052;28;20030;-48
2022/12/08 04:26:18;;;;;;;11.30;4.00;;;;;;;-6.73;70.23;99863.63;4986976;28;20473;-45
2022/12/08 04:28:44;;;;;;;11.90;3.92;;;;;;;-6.74;70.96;99861.03;4973383;28;20133;-49
2022/12/08 04:31:10;;;;;;;6.22;3.05;;;;;;;-6.76;71.77;99877.84;4987014;28;20046;-46
2022/12/08 04:33:36;;;;;;;5.90;2.97;;;;;;;-6.79;72.18;99877.69;4988479;28;20053;-47
2022/12/08 04:36:04;;;;;;;5.15;2.35;;;;;;;-7.08;72.76;99837.06;4980444;28;20506;-47
2022/12/08 04:38:30;;;;;;;7.15;3.55;;;;;;;-6.83;72.86;99879.25;4990422;28;20490;-49
2022/12/08 04:40:56;;;;;;;9.02;3.45;;;;;;;-6.82;73.37;99865.81;4991241;28;20049;-49
2022/12/08 04:43:22;;;;;;;12.13;4.43;;;;;;;-7.07;74.01;99843.84;4968875;28;20046;-47
2022/12/08 04:45:48;;;;;;;11.35;4.50;;;;;;;-6.85;74.57;99881.72;4986828;28;20069;-49
2022/12/08 04:48:14;;;;;;;12.70;4.82;;;;;;;-7.00;75.47;99849.97;4989942;28;20506;-46
2022/12/08 04:50:42;;;;;;;10.18;4.13;;;;;;;-6.71;75.77;99874.66;4988934;28;20453;-47
2022/12/08 04:53:08;;;;;;;6.32;3.28;;;;;;;-6.71;75.36;99879.72;4978532;28;20050;-46
2022/12/08 04:55:40;;;;;;;8.93;3.67;;;;;;;-6.74;75.07;99894.75;4986997;28;20054;-46
2022/12/08 04:58:06;;;;;;;8.07;2.90;;;;;;;-6.84;75.50;99890.16;4984697;28;20049;-48
2022/12/08 05:00:33;;;;;;;10.55;3.53;;;;;;;-6.82;76.29;99868.34;4989323;28;20054;-47
2022/12/08 05:02:58;;;;;;;10.40;4.43;;;;;;;-6.78;77.18;99874.38;4981662;28;20035;-47
2022/12/08 05:05:24;;;;;;;4.47;2.80;;;;;;;-7.03;77.39;99822.06;4985296;28;20088;-48
2022/12/08 05:07:50;;;;;;;11.32;4.50;;;;;;;-6.83;76.83;99853.13;4988727;28;20509;-46
2022/12/08 05:10:16;;;;;;;9.20;3.63;;;;;;;-6.74;77.05;99874.53;4990220;28;20053;-47
2022/12/08 05:12:42;;;;;;;8.25;4.45;;;;;;;-6.80;76.75;99851.56;4989324;28;20044;-48
2022/12/08 05:15:08;;;;;;;8.98;3.00;;;;;;;-6.76;76.50;99867.72;4988975;28;20380;-47
2022/12/08 05:17:34;;;;;;;7.30;3.00;;;;;;;-6.84;75.70;99847.22;4989795;28;20426;-47
2022/12/08 05:20:00;;;;;;;9.05;3.15;;;;;;;-7.03;75.43;99824.59;4988144;28;20034;-51
2022/12/08 05:22:26;;;;;;;11.82;3.40;;;;;;;-6.79;75.30;99847.38;4989958;28;20042;-50
2022/12/08 05:24:52;;;;;;;9.13;3.58;;;;;;;-6.74;75.61;99858.50;4988629;28;20088;-49
2022/12/08 05:27:17;;;;;;;10.10;3.85;;;;;;;-6.80;75.30;99861.66;4987288;28;20042;-49
2022/12/08 05:29:43;;;;;;;9.55;4.53;;;;;;;-6.77;75.03;99856.75;4988638;28;20125;-51
2022/12/08 05:32:09;;;;;;;7.93;3.97;;;;;;;-6.72;74.94;99850.19;4981741;28;20471;-55
2022/12/08 05:34:35;;;;;;;8.65;3.67;;;;;;;-6.61;74.92;99851.44;4998818;28;20042;-58
2022/12/08 05:37:01;;;;;;;12.13;4.13;;;;;;;-6.65;74.48;99857.22;4991570;28;20049;-57
2022/12/08 05:39:27;;;;;;;7.68;3.65;;;;;;;-6.61;74.19;99843.88;4985513;28;20061;-58
2022/12/08 05:41:53;;;;;;;9.07;3.83;;;;;;;-6.78;73.85;99828.88;4989788;28;20518;-53
2022/12/08 05:44:19;;;;;;;10.65;3.55;;;;;;;-6.62;73.41;99849.72;4982957;28;20044;-46
2022/12/08 05:46:45;;;;;;;9.70;3.72;;;;;;;-6.69;73.59;99845.22;4994641;28;20514;-56
2022/12/08 05:49:11;;;;;;;7.85;3.72;;;;;;;-6.65;74.00;99841.19;4972482;28;20129;-51
2022/12/08 05:51:36;;;;;;;8.10;3.95;;;;;;;-6.82;73.82;99817.81;4988145;28;20045;-52
2022/12/08 05:54:03;;;;;;;6.68;2.63;;;;;;;-6.74;73.79;99833.22;4978475;28;20497;-52
2022/12/08 05:56:38;;;;;;;6.50;3.15;;;;;;;-6.65;73.37;99864.78;4973970;28;20050;-53
2022/12/08 05:59:06;;;;;;;5.15;2.45;;;;;;;-6.71;72.89;99851.91;4989326;28;20038;-50
2022/12/08 06:01:32;;;;;;;4.72;2.25;;;;;;;-6.70;72.91;99861.22;4987839;28;20050;-51
2022/12/08 06:04:00;;;;;;;10.25;3.95;;;;;;;-6.76;72.82;99848.38;4955968;28;20085;-51
2022/12/08 06:06:26;;;;;;;8.45;3.25;;;;;;;-6.72;72.52;99856.91;4988861;28;20038;-53
2022/12/08 06:08:52;;;;;;;6.78;3.70;;;;;;;-6.75;72.46;99859.34;4989675;28;20058;-52
2022/12/08 06:11:21;;;;;;;9.05;3.33;;;;;;;-6.74;72.71;99854.31;4989779;28;20528;-50
2022/12/08 06:13:48;;;;;;;10.30;3.30;;;;;;;-6.75;72.84;99846.69;4988910;28;20719;-50
2022/12/08 06:16:14;;;;;;;8.20;3.72;;;;;;;-6.74;73.22;99853.44;4988020;28;20038;-51
2022/12/08 06:18:39;;;;;;;21.73;3.50;;;;;;;-6.79;73.34;99842.31;4970318;28;20612;-50
2022/12/08 06:21:07;;;;;;;7.20;2.92;;;;;;;-6.78;74.25;99839.00;4970135;28;20503;-51
2022/12/08 06:23:34;;;;;;;5.63;2.13;;;;;;;-7.19;74.63;99780.22;4964281;28;20034;-51
2022/12/08 06:26:08;;;;;;;11.63;3.40;;;;;;;-7.08;74.98;99801.69;4989399;28;20046;-49
2022/12/08 06:28:35;;;;;;;5.22;2.08;;;;;;;-6.78;75.34;99854.16;4989621;28;20042;-51
2022/12/08 06:31:32;;;;;;;7.43;2.75;;;;;;;-6.71;75.79;99844.34;4989598;28;20070;-48
2022/12/08 06:33:58;;;;;;;6.95;3.72;;;;;;;-6.69;75.96;99842.72;4985489;28;20050;-51
2022/12/08 06:36:26;;;;;;;7.40;2.92;;;;;;;-6.72;75.78;99851.84;5004857;28;20058;-50
2022/12/08 06:38:52;;;;;;;10.50;3.83;;;;;;;-6.87;75.37;99825.22;4989342;28;20137;-48
2022/12/08 06:41:18;;;;;;;14.35;2.95;;;;;;;-6.76;76.11;99843.31;4988458;28;20130;-51
2022/12/08 06:43:45;;;;;;;8.88;3.50;;;;;;;-6.73;75.82;99843.41;4988362;28;20073;-49
2022/12/08 06:46:16;;;;;;;9.75;3.00;;;;;;;-6.73;76.37;99832.44;4988415;28;20046;-51
2022/12/08 06:48:43;;;;;;;11.40;4.18;;;;;;;-6.68;76.04;99849.50;4972158;28;20120;-48
2022/12/08 06:51:14;;;;;;;4.93;2.75;;;;;;;-7.06;75.75;99781.50;4989363;28;20053;-49
2022/12/08 06:53:40;;;;;;;11.30;3.75;;;;;;;-6.72;75.41;99846.81;4999932;28;20066;-52
2022/12/08 06:56:07;;;;;;;4.22;2.95;;;;;;;-6.64;75.43;99848.78;4968791;28;20043;-52
2022/12/08 06:58:33;;;;;;;6.93;2.78;;;;;;;-6.98;74.89;99808.81;4985094;28;20366;-50
2022/12/08 07:01:10;;;;;;;11.40;3.35;;;;;;;-6.68;74.67;99858.75;4970047;28;20070;-51
2022/12/08 07:03:37;;;;;;;4.07;2.05;;;;;;;-6.62;74.76;99862.34;4968826;28;20466;-52
2022/12/08 07:06:03;;;;;;;10.73;3.40;;;;;;;-6.59;74.79;99848.94;4979733;28;20042;-52
2022/12/08 07:08:29;;;;;;;6.78;3.00;;;;;;;-6.60;73.83;99850.66;4987887;28;20430;-50
2022/12/08 07:10:55;;;;;;;8.85;3.90;;;;;;;-6.56;73.56;99842.38;4988141;28;20042;-47
2022/12/08 07:13:21;;;;;;;8.98;3.65;;;;;;;-6.47;73.52;99829.16;4989422;28;20050;-53
2022/12/08 07:15:47;;;;;;;10.93;3.20;;;;;;;-6.37;72.88;99850.59;4989441;28;20038;-48
2022/12/08 07:18:13;;;;;;;6.43;2.47;;;;;;;-6.43;72.24;99849.56;4989021;28;20042;-51
2022/12/08 07:20:39;;;;;;;11.43;3.90;;;;;;;-6.44;72.04;99847.84;4987292;28;20050;-54
2022/12/08 07:23:05;;;;;;;9.95;4.18;;;;;;;-6.35;71.68;99854.03;4971539;28;20465;-48
2022/12/08 07:25:31;;;;;;;7.70;3.13;;;;;;;-6.26;71.50;99845.09;4989136;28;20042;-48
2022/12/08 07:27:57;;;;;;;13.85;3.78;;;;;;;-6.47;71.30;99817.41;4985965;28;20039;-51
2022/12/08 07:30:23;;;;;;;8.15;3.70;;;;;;;-6.31;70.53;99850.81;4976239;28;20054;-54
2022/12/08 07:32:48;;;;;;;7.97;3.10;;;;;;;-6.26;70.89;99846.75;4991604;28;20137;-52
2022/12/08 07:35:14;;;;;;;4.50;2.85;;;;;;;-6.23;70.76;99846.91;4991539;28;20038;-51
2022/12/08 07:37:40;;;;;;;6.07;3.45;;;;;;;-6.19;69.95;99836.06;4992919;28;20471;-51
2022/12/08 07:40:07;;;;;;;5.28;2.45;;;;;;;-6.20;69.86;99852.03;4992845;28;20458;-52
2022/12/08 07:42:33;;;;;;;10.10;4.20;;;;;;;-6.13;69.67;99838.81;4992642;28;20050;-52
2022/12/08 07:45:00;;;;;;;8.10;3.47;;;;;;;-6.08;69.45;99844.88;4992210;28;20212;-49
2022/12/08 07:47:25;;;;;;;9.80;3.90;;;;;;;-6.30;69.60;99807.00;4974956;28;20042;-52
2022/12/08 07:49:51;;;;;;;7.15;2.72;;;;;;;-6.21;69.18;99842.72;4992652;28;20128;-51
2022/12/08 07:52:17;;;;;;;7.75;2.97;;;;;;;-6.19;69.31;99826.81;4990763;28;20224;-51
2022/12/08 07:54:43;;;;;;;9.43;3.38;;;;;;;-6.27;69.61;99800.38;5007140;28;20061;-50
2022/12/08 07:57:09;;;;;;;6.20;3.22;;;;;;;-6.24;68.98;99813.16;4992290;28;20042;-57
2022/12/08 07:59:35;;;;;;;8.75;3.22;;;;;;;-6.18;69.21;99828.53;4991193;28;20565;-52
2022/12/08 08:02:00;;;;;;;8.27;3.90;;;;;;;-6.22;69.12;99819.09;4974872;28;20042;-51
2022/12/08 08:04:27;;;;;;;8.00;4.13;;;;;;;-6.20;68.91;99817.50;4991126;28;20129;-51
2022/12/08 08:06:53;;;;;;;7.43;3.53;;;;;;;-6.12;68.76;99848.97;4992676;28;20150;-52
2022/12/08 08:09:19;;;;;;;4.63;2.72;;;;;;;-6.19;69.40;99805.72;4992532;28;20058;-53
2022/12/08 08:11:45;;;;;;;9.50;3.65;;;;;;;-6.12;69.40;99813.53;4991761;28;20039;-53
2022/12/08 08:14:12;;;;;;;7.53;3.35;;;;;;;-6.06;68.80;99813.75;4991824;28;20034;-50
2022/12/08 08:16:40;;;;;;;7.30;2.92;;;;;;;-6.01;69.19;99803.78;4990491;28;20080;-50
2022/12/08 08:19:06;;;;;;;6.00;3.23;;;;;;;-5.81;68.87;99809.47;4990662;28;20422;-53
2022/12/08 08:21:32;;;;;;;4.57;2.53;;;;;;;-6.00;68.36;99770.94;4992263;28;20050;-51
2022/12/08 08:23:58;;;;;;;7.95;2.80;;;;;;;-5.79;68.87;99808.72;4990501;28;20510;-51
2022/12/08 08:26:24;;;;;;;7.55;3.22;;;;;;;-5.81;68.06;99812.00;4991696;28;20054;-50
2022/12/08 08:28:49;;;;;;;10.25;3.72;;;;;;;-5.74;67.89;99796.19;4990387;28;20042;-49
2022/12/08 08:31:15;;;;;;;9.15;3.28;;;;;;;-5.69;68.17;99794.66;4991651;28;20054;-50
2022/12/08 08:33:41;;;;;;;6.72;2.75;;;;;;;-5.64;67.61;99795.66;4990087;28;20046;-50
2022/12/08 08:36:08;;;;;;;6.35;3.20;;;;;;;-5.77;67.38;99803.69;4991590;28;20042;-54
2022/12/08 08:38:35;;;;;;;6.47;3.00;;;;;;;-5.84;67.33;99814.44;4990185;28;20076;-51
2022/12/08 08:41:07;;;;;;;7.43;3.58;;;;;;;-5.79;67.39;99811.25;4991926;28;20042;-50
2022/12/08 08:43:35;;;;;;;6.43;3.10;;;;;;;-5.72;67.65;99803.03;4990252;28;20030;-50
2022/12/08 08:46:02;;;;;;;9.20;3.03;;;;;;;-5.68;67.42;99809.06;4974310;28;20069;-51
2022/12/08 08:48:29;;;;;;;6.45;3.08;;;;;;;-5.70;66.93;99805.59;4990574;28;20137;-52
2022/12/08 08:50:56;;;;;;;8.05;3.35;;;;;;;-5.69;67.64;99803.13;4990590;28;20068;-50
2022/12/08 08:53:22;;;;;;;14.40;3.60;;;;;;;-5.66;67.49;99790.56;4973655;28;20070;-50
2022/12/08 08:55:49;;;;;;;10.82;3.47;;;;;;;-5.63;68.13;99798.25;4990457;28;20153;-52
2022/12/08 08:58:15;;;;;;;6.82;3.55;;;;;;;-5.64;68.21;99790.59;4957931;28;20457;-50
2022/12/08 09:00:40;;;;;;;7.88;3.40;;;;;;;-5.52;69.63;99791.00;4991384;28;20150;-52
2022/12/08 09:03:06;;;;;;;11.13;4.63;;;;;;;-5.57;69.84;99788.31;4990842;28;20132;-52
2022/12/08 09:05:32;;;;;;;7.60;2.75;;;;;;;-5.84;69.17;99754.53;4973958;28;20141;-50
2022/12/08 09:07:58;;;;;;;8.10;2.92;;;;;;;-5.56;69.23;99807.78;4991415;28;20121;-48
2022/12/08 09:10:24;;;;;;;12.60;4.65;;;;;;;-5.56;69.30;99812.84;4990314;28;20499;-53
2022/12/08 09:12:50;;;;;;;6.63;2.60;;;;;;;-5.59;69.15;99814.41;4990868;28;20050;-48
2022/12/08 09:15:19;;;;;;;10.30;3.50;;;;;;;-5.68;69.27;99814.97;4989675;28;20498;-50
2022/12/08 09:17:45;;;;;;;17.80;4.65;;;;;;;-5.68;68.79;99807.38;4990032;28;20049;-51
2022/12/08 09:20:11;;;;;;;18.95;4.65;;;;;;;-5.87;68.59;99762.09;4990881;28;20054;-49
2022/12/08 09:22:37;;;;;;;8.25;3.95;;;;;;;-5.61;68.81;99795.78;4990829;28;20145;-53
2022/12/08 09:25:03;;;;;;;12.35;4.70;;;;;;;-5.55;68.89;99793.44;4989202;28;20050;-51
2022/12/08 09:27:30;;;;;;;12.10;4.90;;;;;;;-5.53;68.39;99801.06;4990626;28;20084;-52
2022/12/08 09:29:56;;;;;;;8.85;3.60;;;;;;;-5.73;68.48;99752.34;4989564;28;20140;-50
2022/12/08 09:32:22;;;;;;;8.50;3.33;;;;;;;-5.55;68.85;99801.88;4990343;28;20134;-50
2022/12/08 09:34:48;;;;;;;10.43;3.78;;;;;;;-5.67;68.45;99791.38;4990647;28;20042;-52
2022/12/08 09:37:13;;;;;;;9.73;4.22;;;;;;;-5.77;69.07;99753.06;4990601;28;20128;-53
2022/12/08 09:39:39;;;;;;;11.60;5.10;;;;;;;-5.61;67.84;99778.06;4989448;28;20054;-52
2022/12/08 09:42:06;;;;;;;7.35;3.00;;;;;;;-5.73;68.21;99755.75;4989244;28;20584;-53
2022/12/08 09:44:38;;;;;;;9.38;3.70;;;;;;;-5.59;68.38;99779.81;4990692;28;20038;-51
2022/12/08 09:47:19;;;;;;;6.70;3.45;;;;;;;-5.68;68.81;99779.53;4990725;28;20054;-50
2022/12/08 09:49:55;;;;;;;9.15;3.85;;;;;;;-5.80;69.25;99752.94;4988704;28;20050;-54
2022/12/08 09:52:25;;;;;;;12.00;4.82;;;;;;;-5.53;69.40;99781.69;5005220;28;20457;-49
2022/12/08 09:54:51;;;;;;;11.13;4.05;;;;;;;-5.51;69.29;99785.13;4988301;28;20057;-53
2022/12/08 09:57:19;;;;;;;7.15;3.13;;;;;;;-5.62;69.26;99773.81;5005556;28;20046;-51
2022/12/08 09:59:52;;;;;;;12.23;4.13;;;;;;;-5.72;68.69;99754.94;5005589;28;20049;-53
2022/12/08 10:02:29;;;;;;;10.20;4.55;;;;;;;-5.58;69.26;99785.75;4989034;28;20425;-49
2022/12/08 10:04:56;;;;;;;9.18;3.88;;;;;;;-5.56;69.71;99790.06;4989366;28;20069;-51
2022/12/08 10:08:03;;;;;;;7.22;3.67;;;;;;;-5.63;69.96;99784.72;4973098;28;20513;-51
2022/12/08 10:10:42;;;;;;;9.55;4.10;;;;;;;-5.57;70.10;99777.34;4967826;28;20533;-48
2022/12/08 10:13:26;;;;;;;11.48;4.45;;;;;;;-5.45;70.70;99780.25;4972156;28;20050;-52
2022/12/08 10:16:08;;;;;;;7.85;3.08;;;;;;;-5.38;70.38;99764.41;4988560;28;20157;-51
2022/12/08 10:18:36;;;;;;;10.77;4.45;;;;;;;-5.43;69.78;99773.53;4989940;28;20042;-50
2022/12/08 10:21:11;;;;;;;9.40;3.90;;;;;;;-5.42;69.82;99776.94;4989527;28;20192;-49
2022/12/08 10:23:38;;;;;;;12.48;3.58;;;;;;;-5.46;70.35;99786.13;4989671;28;20041;-51
2022/12/08 10:26:13;;;;;;;12.18;5.78;;;;;;;-5.50;70.20;99789.38;4972606;28;20053;-50
2022/12/08 10:28:39;;;;;;;5.70;2.97;;;;;;;-5.52;69.85;99772.41;4969264;28;20098;-51
2022/12/08 10:31:05;;;;;;;11.07;4.43;;;;;;;-5.41;69.89;99778.66;4970244;28;20582;-54
2022/12/08 10:33:32;;;;;;;13.23;5.18;;;;;;;-5.29;70.20;99779.91;4987494;28;20046;-52
2022/12/08 10:36:03;;;;;;;9.73;4.03;;;;;;;-5.26;69.60;99776.59;4988269;28;20451;-53
2022/12/08 10:38:32;;;;;;;12.48;4.72;;;;;;;-5.23;69.35;99764.00;4988774;28;20038;-50
2022/12/08 10:41:18;;;;;;;10.95;4.80;;;;;;;-5.20;69.81;99775.09;4988289;28;20040;-53
2022/12/08 10:43:47;;;;;;;9.50;4.80;;;;;;;-5.27;68.81;99765.59;4989163;28;20042;-50
2022/12/08 10:46:16;;;;;;;10.13;3.97;;;;;;;-5.28;69.47;99766.41;4972000;28;20161;-53
2022/12/08 10:48:47;;;;;;;8.88;4.03;;;;;;;-5.16;69.10;99778.59;4972198;28;20077;-56
2022/12/08 10:51:23;;;;;;;8.15;4.05;;;;;;;-5.20;69.10;99772.56;4987922;28;20511;-48
2022/12/08 10:53:48;;;;;;;9.75;4.32;;;;;;;-5.22;69.25;99780.94;4987771;28;20042;-50
2022/12/08 10:56:15;;;;;;;9.13;3.92;;;;;;;-5.22;68.95;99781.78;4988111;28;20399;-50
2022/12/08 10:58:43;;;;;;;10.35;4.60;;;;;;;-5.21;69.56;99775.06;5004643;28;20053;-54
2022/12/08 11:01:39;;;;;;;11.02;4.82;;;;;;;-5.19;69.32;99766.69;5004645;28;20054;-50
2022/12/08 11:04:12;;;;;;;6.75;3.22;;;;;;;-5.16;69.79;99794.66;4980038;28;20069;-53
2022/12/08 11:06:39;;;;;;;9.57;4.45;;;;;;;-5.62;69.39;99710.50;4991738;28;20105;-50
2022/12/08 11:09:14;;;;;;;11.85;5.18;;;;;;;-5.13;70.01;99771.09;4992401;28;20058;-50
2022/12/08 11:11:48;;;;;;;9.50;4.40;;;;;;;-5.04;69.75;99763.75;4993332;28;20046;-49
2022/12/08 11:14:44;;;;;;;10.55;3.63;;;;;;;-4.97;69.12;99764.78;4993494;28;20473;-49
2022/12/08 11:17:14;;;;;;;14.82;4.50;;;;;;;-4.94;68.90;99763.19;5007934;28;20108;-50
2022/12/08 11:19:43;;;;;;;8.05;4.13;;;;;;;-4.94;69.32;99775.00;4976040;28;20073;-50
2022/12/08 11:22:23;;;;;;;6.68;3.25;;;;;;;-5.02;69.55;99769.69;4991811;28;20529;-52
2022/12/08 11:25:09;;;;;;;11.02;4.38;;;;;;;-5.06;69.61;99764.50;4991999;28;20038;-53
2022/12/08 11:27:37;;;;;;;11.40;4.03;;;;;;;-5.07;69.62;99770.38;4991724;28;20050;-50
2022/12/08 11:30:11;;;;;;;6.40;3.28;;;;;;;-5.11;70.30;99756.75;4971632;28;20038;-50
2022/12/08 11:32:40;;;;;;;9.93;4.30;;;;;;;-5.12;70.28;99755.03;5006597;28;20114;-50
2022/12/08 11:35:08;;;;;;;12.30;4.50;;;;;;;-5.14;70.44;99742.34;4958957;28;20069;-49
2022/12/08 11:37:41;;;;;;;8.10;3.55;;;;;;;-5.01;70.62;99751.16;4990678;28;20190;-49
2022/12/08 11:40:15;;;;;;;8.73;3.55;;;;;;;-5.09;70.07;99750.06;4991147;28;20053;-55
2022/12/08 11:43:08;;;;;;;7.63;3.17;;;;;;;-5.00;70.80;99765.53;4990997;28;20078;-48
2022/12/08 11:45:35;;;;;;;8.05;3.28;;;;;;;-5.22;70.63;99737.84;4991642;28;20042;-50